BKPR/PRN METAR and TAF weather

Enter ICAO airport designator
Station Type Date Time Source
BKPR METAR 2020/09/26 11:30 UTC NOAA

BKPR 261130Z 22015KT 9999 SCT040 SCT080 17/06 Q0999 NOSIG


Station Type Date Time Source
BKPR Decoded METAR 2020/09/26 11:30 UTC NOAA

Station name not available
Sep 26, 2020 - 07:30 AM EDT / 2020.09.26 1130 UTC
Wind: from the SW (220 degrees) at 17 MPH (15 KT):0
Visibility: greater than 7 mile(s):0
Sky conditions: partly cloudy
Temperature: 62 F (17 C)
Dew Point: 42 F (6 C)
Relative Humidity: 48%
Pressure (altimeter): 29.50 in. Hg (0999 hPa)
ob: BKPR 261130Z 22015KT 9999 SCT040 SCT080 17/06 Q0999 NOSIG
cycle: 11

Station Type Date Time Source
BKPR TAF 2020/09/26 12:30 UTC NOAA

TAF BKPR 261130Z 2612/2712 22015KT 9999 SCT040 BKN080
TEMPO 2612/2617 24015G25KT 5000 -SHRA FEW030CB

Example: see airport list